• Join FlightAware (Why Join?)
  • Login
  • US Flag 
03:21AM EDT


 

Airport Tracker/Info


-or-


 

Live Flight TrackerFlight Track Log ✈ SKW4764 ✈ 11-Sep-2013 ✈ KMSO - KSLC

Flight Track Log - Related Links

Times and Time Zones

All times are in EDT time to prevent confusion due to time zone crossing. See the SKW4764 flight status page for this flight to view local times or setup timezone preferences in your user account.

Time Position Orientation Groundspeed Altitude Reporting Facility
EDT Latitude Longitude Course Direction KTS MPH feet Rate Location/Type
07:44PM 46.8025 -114.0639 180° South 228 262 7,200  Level Salt Lake Center
07:45PM 46.7333 -114.0589 177° South 254 292 8,900 1,680 Climbing Salt Lake Center
07:46PM 46.6556 -114.0592 180° South 279 321 10,700 1,620 Climbing Salt Lake Center
07:47PM 46.5656 -114.0603 180° South 301 346 12,300 1,500 Climbing Salt Lake Center
07:48PM 46.4792 -113.9240 180° South  Level Estimated
07:48PM 46.4769 -114.0614 180° South 317 365 13,800  Level Salt Lake Center
07:49PM 46.3903 -113.9474 190° South  Level FlightAware Approximate
07:50PM 46.3030 -113.9136 180° South  Level Estimated
07:50PM 46.3797 -114.0414 172° South 328 377 15,500  Level Salt Lake Center
07:51PM 46.2883 -114.0086 166° South 336 387 16,700 1,020 Climbing Salt Lake Center
07:52PM 46.1942 -113.9756 166° South 348 400 17,700 960 Climbing Salt Lake Center
07:53PM 46.1064 -113.9467 167° South 353 406 18,800 1,080 Climbing Salt Lake Center
07:54PM 46.0108 -113.9139 167° South 353 406 20,000 1,200 Climbing Salt Lake Center
07:55PM 45.8947 -113.8736 166° South 359 413 21,300 1,020 Climbing Salt Lake Center
07:56PM 45.7961 -113.8378 166° South 365 420 22,200 840 Climbing Salt Lake Center
07:57PM 45.6967 -113.8033 166° South 369 425 23,100 840 Climbing Salt Lake Center
07:58PM 45.5983 -113.7728 168° South 375 432 24,000 960 Climbing Salt Lake Center
07:59PM 45.4739 -113.7300 166° South 383 441 25,100 960 Climbing Salt Lake Center
08:00PM 45.3719 -113.6956 167° South 378 435 26,000 780 Climbing Salt Lake Center
08:01PM 45.2672 -113.6617 167° South 386 444 26,800 660 Climbing Salt Lake Center
08:02PM 45.1678 -113.6289 167° South 384 442 27,400 540 Climbing Salt Lake Center
08:03PM 45.0525 -113.5894 166° South 383 441 28,000 480 Climbing Salt Lake Center
08:04PM 44.9483 -113.5550 167° South 395 455 28,500 720 Climbing Salt Lake Center
08:05PM 44.8289 -113.5164 167° South 395 455 29,500 900 Climbing Salt Lake Center
08:06PM 44.7292 -113.4819 166° South 388 447 30,400 720 Climbing Salt Lake Center
08:07PM 44.6150 -113.4436 167° South 380 437 31,000 240 Climbing Salt Lake Center
08:08PM 44.5181 -113.4119 167° South 377 434 31,000  Level Salt Lake Center
08:09PM 44.3983 -113.3717 166° South 385 443 31,000  Level Salt Lake Center
08:10PM 44.2894 -113.3375 167° South 403 464 31,000  Level Salt Lake Center
08:11PM 44.1775 -113.3022 167° South 419 482 31,000  Level Salt Lake Center
08:12PM 44.0486 -113.2617 167° South 426 490 31,000  Level Salt Lake Center
08:13PM 43.9375 -113.2264 167° South 427 491 31,000  Level Salt Lake Center
08:14PM 43.8078 -113.1850 167° South 429 494 31,000  Level Salt Lake Center
08:15PM 43.6967 -113.1497 167° South 430 495 31,000  Level Salt Lake Center
08:16PM 43.5672 -113.1086 167° South 428 493 31,000  Level Salt Lake Center
08:17PM 43.4561 -113.0739 167° South 429 494 31,000  Level Salt Lake Center
08:18PM 43.3250 -113.0333 167° South 432 497 31,000  Level Salt Lake Center
08:19PM 43.2119 -112.9969 167° South 434 499 31,000  Level Salt Lake Center
08:20PM 43.0808 -112.9564 167° South 433 498 31,000  Level Salt Lake Center
08:21PM 42.9681 -112.9225 168° South 434 499 31,000  Level Salt Lake Center
08:22PM 42.8553 -112.8869 167° South 435 501 31,000  Level Salt Lake Center
08:24PM 42.7233 -112.8467 167° South 435 501 31,000  Level Salt Lake Center
08:25PM 42.6167 -112.8153 168° South 433 498 31,000  Level Salt Lake Center
08:26PM 42.4758 -112.7725 167° South 433 498 31,000  Level Salt Lake Center
08:27PM 42.3589 -112.7350 167° South 434 499 31,000 -540 Level Salt Lake Center
08:28PM 42.2403 -112.6983 167° South 436 502 29,900 -1,680 Descending Salt Lake Center
08:29PM 42.1142 -112.6625 168° South 459 528 27,600 -2,280 Descending Salt Lake Center
08:30PM 41.9914 -112.6247 167° South 457 526 25,200 -2,340 Descending Salt Lake Center
08:31PM 41.8719 -112.5903 168° South 444 511 22,900 -2,460 Descending Salt Lake Center
08:32PM 41.7300 -112.5494 168° South 439 505 20,200 -2,520 Descending Salt Lake Center
08:32PM 41.6914 -112.5297 159° South 432 497 19,300 -2,220 Descending Salt Lake Center
08:33PM 41.6367 -112.5136 168° South 426 490 18,200 -2,280 Descending Salt Lake Center
08:33PM 41.6161 -112.5144 182° South 425 489 17,900 -1,200 Descending Salt Lake Center
08:34PM 41.5264 -112.4761 162° South 375 432 17,000 -900 Descending Salt Lake Center
08:34PM 41.5169 -112.4742 171° South 371 427 17,000 -1,920 Level Salt Lake Center
08:35PM 41.4378 -112.4061 147° Southeast 378 435 15,100 -1,980 Descending Salt Lake Center
08:35PM 41.4297 -112.4056 177° South 368 423 15,000 -1,800 Descending Salt Lake Center
08:36PM 41.3411 -112.3386 150° Southeast 391 450 13,300 -1,800 Descending Salt Lake Center
08:36PM 41.3319 -112.3372 174° South 393 452 13,200 -300 Descending Salt Lake Center
08:37PM 41.2469 -112.2733 151° Southeast 386 444 13,000 -240 Descending Salt Lake Center
08:37PM 41.2389 -112.2706 165° South 385 443 13,000 -600 Level Salt Lake Center
08:38PM 41.1489 -112.2011 150° Southeast 384 442 12,400 -600 Descending Salt Lake Center
08:38PM 41.1469 -112.2019 198° South 382 440 12,400 -1,020 Level Salt Lake Center
08:39PM 41.0517 -112.1431 155° Southeast 381 438 11,400 -1,200 Descending Salt Lake Center
08:39PM 41.0325 -112.1375 168° South 376 433 11,200 -420 Descending Salt Lake Center
08:40PM 40.9506 -112.1206 171° South 363 418 11,000 -240 Descending Salt Lake Center
08:40PM 40.9353 -112.1175 171° South 358 412 11,000  Level Salt Lake Center
08:41PM 40.8686 -112.1086 174° South 285 328 11,000  Level Salt Lake Center
08:41PM 40.8564 -112.1050 167° South 275 316 11,000 -720 Level Salt Lake Center
08:42PM 40.7981 -112.1011 177° South 254 292 10,300 -900 Descending Salt Lake Center
08:42PM 40.7869 -112.0967 163° South 252 290 10,100 -1,380 Descending Salt Lake Center
08:43PM 40.7208 -112.0906 176° South 227 261 8,800 -1,200 Descending Salt Lake Center
08:43PM 40.7217 -112.0872 72° East 232 267 8,900 -2,280 Climbing Salt Lake Center
08:44PM 40.7089 -112.0294 106° East 185 213 6,500 -2,640 Descending Salt Lake Center
08:44PM 40.7150 -112.0133 63° Northeast 184 212 6,200 -1,620 Descending Salt Lake Center
08:45PM 40.7431 -111.9953 26° Northeast 157 181 4,900 -1,500 Descending Salt Lake Center
08:45PM 40.7522 -111.9922 14° North 154 177 4,700 -600 Descending Salt Lake Center
08:46PM 40.7925 -111.9972 355° North 148 170 4,200 -540 Descending Salt Lake Center